createdAt,value
2022-12-10T00:02:02.508Z,63.43
2022-12-10T00:05:12.670Z,63.40
2022-12-10T00:08:18.446Z,64.05
2022-12-10T00:11:27.394Z,62.83
2022-12-10T00:14:32.923Z,63.00
2022-12-10T00:17:39.212Z,62.61
2022-12-10T00:20:47.416Z,62.57
2022-12-10T00:23:54.487Z,62.54
2022-12-10T00:27:00.080Z,62.98
2022-12-10T00:30:07.906Z,63.15
2022-12-10T00:33:13.858Z,62.92
2022-12-10T00:36:27.319Z,62.92
2022-12-10T00:39:33.095Z,63.12
2022-12-10T00:42:39.452Z,63.93
2022-12-10T00:45:45.280Z,63.11
2022-12-10T00:48:52.534Z,63.01
2022-12-10T00:52:01.423Z,63.20
2022-12-10T00:55:11.497Z,62.58
2022-12-10T00:58:17.044Z,63.08
2022-12-10T01:01:27.263Z,62.74
2022-12-10T01:04:34.365Z,62.50
2022-12-10T01:07:43.629Z,62.67
2022-12-10T01:10:57.120Z,62.91
2022-12-10T01:14:04.823Z,62.31
2022-12-10T01:17:10.446Z,62.38
2022-12-10T01:20:17.623Z,62.62
2022-12-10T01:23:25.751Z,62.75
2022-12-10T01:26:36.443Z,62.50
2022-12-10T01:29:42.206Z,62.79
2022-12-10T01:32:48.546Z,62.16
2022-12-10T01:35:54.081Z,62.13
2022-12-10T01:39:04.933Z,62.81
2022-12-10T01:42:15.629Z,62.92
2022-12-10T01:45:22.736Z,62.37
2022-12-10T01:48:28.253Z,63.41
2022-12-10T01:51:40.340Z,63.48
2022-12-10T01:54:50.847Z,63.22
2022-12-10T01:57:57.199Z,62.92
2022-12-10T02:01:13.370Z,61.94
2022-12-10T02:04:36.123Z,63.09
2022-12-10T02:07:59.917Z,62.56
2022-12-10T02:11:21.324Z,61.38
2022-12-10T02:14:42.818Z,61.77
2022-12-10T02:17:58.098Z,61.93
2022-12-10T02:21:13.962Z,62.17
2022-12-10T02:24:30.258Z,62.31
2022-12-10T02:27:56.300Z,62.71
2022-12-10T02:31:09.851Z,63.46
2022-12-10T02:34:23.016Z,63.90
2022-12-10T02:37:35.964Z,63.75
2022-12-10T02:40:52.819Z,63.87
2022-12-10T02:44:05.931Z,64.22
2022-12-10T02:47:16.721Z,64.11
2022-12-10T02:50:26.750Z,64.65
2022-12-10T02:53:33.566Z,63.64
2022-12-10T02:56:48.963Z,63.54
2022-12-10T03:00:17.555Z,62.99
2022-12-10T03:03:48.911Z,63.33
2022-12-10T03:07:02.084Z,63.15
2022-12-10T03:10:18.395Z,62.83
2022-12-10T03:13:33.567Z,62.95
2022-12-10T03:16:46.230Z,63.49
2022-12-10T03:19:57.774Z,64.00
2022-12-10T03:23:06.363Z,63.75
2022-12-10T03:26:14.563Z,64.29
2022-12-10T03:29:30.191Z,63.41
2022-12-10T03:32:37.606Z,63.28
2022-12-10T03:35:46.209Z,64.16
2022-12-10T03:38:53.680Z,64.21
2022-12-10T03:41:59.265Z,63.22
2022-12-10T03:45:05.582Z,63.23
2022-12-10T03:48:11.481Z,63.03
2022-12-10T03:51:20.512Z,63.72
2022-12-10T03:54:26.354Z,63.54
2022-12-10T03:57:32.642Z,63.33
2022-12-10T04:00:38.540Z,64.11
2022-12-10T04:03:47.310Z,63.75
2022-12-10T04:06:55.459Z,63.98
2022-12-10T04:10:01.772Z,63.58
2022-12-10T04:13:20.224Z,64.82
2022-12-10T04:16:31.451Z,64.18
2022-12-10T04:19:37.225Z,63.65
2022-12-10T04:22:58.699Z,63.83
2022-12-10T04:26:17.743Z,63.95
2022-12-10T04:29:24.150Z,63.74
2022-12-10T04:32:33.790Z,63.08
2022-12-10T04:35:40.111Z,63.47
2022-12-10T04:38:48.458Z,63.74
2022-12-10T04:41:55.034Z,64.66
2022-12-10T04:45:00.881Z,64.07
2022-12-10T04:48:07.865Z,63.92
2022-12-10T04:51:14.030Z,63.86
2022-12-10T04:54:24.016Z,63.93
2022-12-10T04:57:29.397Z,63.88
2022-12-10T05:00:35.746Z,64.18
2022-12-10T05:03:41.581Z,64.36
2022-12-10T05:06:49.024Z,64.16
2022-12-10T05:09:59.469Z,64.17
2022-12-10T05:13:05.714Z,63.83
2022-12-10T05:16:15.894Z,63.85
2022-12-10T05:19:24.576Z,63.37
2022-12-10T05:22:51.561Z,63.44
2022-12-10T05:26:07.566Z,65.17
2022-12-10T05:29:14.213Z,64.21
2022-12-10T05:32:20.520Z,63.63
2022-12-10T05:35:26.184Z,63.73
2022-12-10T05:38:35.954Z,63.18
2022-12-10T05:41:45.173Z,62.67
2022-12-10T05:44:51.894Z,63.17
2022-12-10T05:47:57.462Z,63.11
2022-12-10T05:51:08.614Z,62.41
2022-12-10T05:54:14.310Z,62.57
2022-12-10T05:57:23.156Z,62.63
2022-12-10T06:00:28.920Z,62.41
2022-12-10T06:03:35.276Z,62.49
2022-12-10T06:06:45.203Z,63.18
2022-12-10T06:09:51.653Z,63.29
2022-12-10T06:12:59.852Z,62.48
2022-12-10T06:16:10.368Z,62.44
2022-12-10T06:19:15.921Z,62.29
2022-12-10T06:22:22.179Z,62.17
2022-12-10T06:25:28.164Z,62.11
2022-12-10T06:28:37.167Z,61.90
2022-12-10T06:31:42.800Z,62.01
2022-12-10T06:34:49.236Z,61.55
2022-12-10T06:37:55.406Z,62.43
2022-12-10T06:41:02.032Z,62.18
2022-12-10T06:44:11.683Z,63.13
2022-12-10T06:47:18.402Z,62.79
2022-12-10T06:50:24.000Z,62.43
2022-12-10T06:53:30.310Z,62.60
2022-12-10T06:56:35.914Z,62.38
2022-12-10T06:59:44.818Z,62.80
2022-12-10T07:02:50.968Z,62.20
2022-12-10T07:06:00.936Z,62.35
2022-12-10T07:09:06.549Z,62.63
2022-12-10T07:12:13.175Z,62.86
2022-12-10T07:15:21.690Z,62.63
2022-12-10T07:18:28.502Z,62.59
2022-12-10T07:21:37.440Z,62.66
2022-12-10T07:24:44.207Z,62.28
2022-12-10T07:27:50.463Z,62.26
2022-12-10T07:31:08.726Z,62.38
2022-12-10T07:34:15.937Z,61.81
2022-12-10T07:37:22.360Z,61.53
2022-12-10T07:40:27.966Z,61.96
2022-12-10T07:43:38.338Z,62.07
2022-12-10T07:46:46.494Z,61.92
2022-12-10T07:49:53.026Z,61.95
2022-12-10T07:52:58.523Z,61.65
2022-12-10T07:56:05.566Z,62.31
2022-12-10T07:59:11.502Z,62.07
2022-12-10T08:02:20.776Z,62.91
2022-12-10T08:05:26.540Z,62.82
2022-12-10T08:08:32.920Z,63.48
2022-12-10T08:11:38.378Z,63.10
2022-12-10T08:14:44.594Z,62.76
2022-12-10T08:17:52.757Z,62.31
2022-12-10T08:20:59.061Z,62.11
2022-12-10T08:24:05.445Z,61.93
2022-12-10T08:27:12.193Z,61.60
2022-12-10T08:30:18.016Z,61.84
2022-12-10T08:33:26.905Z,61.86
2022-12-10T08:36:32.778Z,62.78
2022-12-10T08:39:39.138Z,62.29
2022-12-10T08:42:44.786Z,61.55
2022-12-10T08:45:51.122Z,62.12
2022-12-10T08:48:59.532Z,61.74
2022-12-10T08:52:06.483Z,61.94
2022-12-10T08:55:12.677Z,61.69
2022-12-10T08:58:18.962Z,61.79
2022-12-10T09:01:24.578Z,62.20
2022-12-10T09:04:33.521Z,61.44
2022-12-10T09:07:39.079Z,61.01
2022-12-10T09:10:45.862Z,60.52
2022-12-10T09:13:51.484Z,61.11
2022-12-10T09:16:57.894Z,60.61
2022-12-10T09:20:06.968Z,60.13
2022-12-10T09:23:13.695Z,60.65
2022-12-10T09:26:20.509Z,60.94
2022-12-10T09:29:26.894Z,60.72
2022-12-10T09:32:32.560Z,60.63
2022-12-10T09:35:45.284Z,60.80
2022-12-10T09:38:55.019Z,60.54
2022-12-10T09:42:29.729Z,61.16
2022-12-10T09:45:58.774Z,61.01
2022-12-10T09:49:21.586Z,61.46
2022-12-10T09:52:45.358Z,61.38
2022-12-10T09:55:54.105Z,61.06
2022-12-10T09:59:03.344Z,61.14
2022-12-10T10:02:28.721Z,61.45
2022-12-10T10:05:39.632Z,61.48
2022-12-10T10:08:54.435Z,61.93
2022-12-10T10:12:05.859Z,61.48
2022-12-10T10:15:22.316Z,61.34
2022-12-10T10:18:40.655Z,61.50
2022-12-10T10:21:50.548Z,61.56
2022-12-10T10:24:58.852Z,61.80
2022-12-10T10:28:05.748Z,61.61
2022-12-10T10:31:24.020Z,61.65
2022-12-10T10:34:30.657Z,61.86
2022-12-10T10:37:47.678Z,62.29
2022-12-10T10:41:01.419Z,62.17
2022-12-10T10:44:07.183Z,62.41
2022-12-10T10:47:34.682Z,63.17
2022-12-10T10:50:44.751Z,62.49
2022-12-10T10:53:56.053Z,62.05
2022-12-10T10:57:09.954Z,61.96
2022-12-10T11:00:27.963Z,61.82
2022-12-10T11:03:38.945Z,62.03
2022-12-10T11:06:47.924Z,62.06
2022-12-10T11:09:56.156Z,61.89
2022-12-10T11:13:11.295Z,62.18
2022-12-10T11:16:24.473Z,62.26
2022-12-10T11:19:30.828Z,62.08
2022-12-10T11:22:38.560Z,63.03
2022-12-10T11:26:01.769Z,63.29
2022-12-10T11:29:30.098Z,62.31
2022-12-10T11:33:16.877Z,61.29
2022-12-10T11:36:39.787Z,62.14
2022-12-10T11:40:16.974Z,62.44
2022-12-10T11:43:57.928Z,62.06
2022-12-10T11:47:33.047Z,61.82
2022-12-10T11:50:51.311Z,61.72
2022-12-10T11:54:30.154Z,61.94
2022-12-10T11:57:52.428Z,61.91
2022-12-10T12:01:16.384Z,62.09
2022-12-10T12:04:50.240Z,62.35
2022-12-10T12:08:12.275Z,62.25
2022-12-10T12:11:41.143Z,62.22
2022-12-10T12:15:01.164Z,62.04
2022-12-10T12:18:23.553Z,61.96
2022-12-10T12:21:33.809Z,62.28
2022-12-10T12:24:47.740Z,61.98
2022-12-10T12:28:04.116Z,62.18
2022-12-10T12:31:20.280Z,62.09
2022-12-10T12:34:43.311Z,62.75
2022-12-10T12:38:01.569Z,62.55
2022-12-10T12:41:20.206Z,62.01
2022-12-10T12:44:37.600Z,62.05
2022-12-10T12:47:59.652Z,62.26
2022-12-10T12:51:17.848Z,62.58
2022-12-10T12:54:27.044Z,61.39
2022-12-10T12:57:47.616Z,61.36
2022-12-10T13:01:05.002Z,61.39
2022-12-10T13:04:13.738Z,61.20
2022-12-10T13:07:39.361Z,61.33
2022-12-10T13:10:56.904Z,61.08
2022-12-10T13:14:31.815Z,61.62
2022-12-10T13:17:39.969Z,61.77
2022-12-10T13:20:54.477Z,61.78
2022-12-10T13:24:14.497Z,61.69
2022-12-10T13:27:35.368Z,61.25
2022-12-10T13:30:41.008Z,61.24
2022-12-10T13:34:09.193Z,61.42
2022-12-10T13:37:33.536Z,62.17
2022-12-10T13:40:58.828Z,62.36
2022-12-10T13:44:38.564Z,62.37
2022-12-10T13:47:55.154Z,62.34
2022-12-10T13:51:26.563Z,62.31
2022-12-10T13:55:20.897Z,62.19
2022-12-10T13:58:52.698Z,62.61
2022-12-10T14:02:33.140Z,61.92
2022-12-10T14:06:10.891Z,61.63
2022-12-10T14:09:27.189Z,61.81
2022-12-10T14:12:39.579Z,62.06
2022-12-10T14:15:57.344Z,61.58
2022-12-10T14:19:12.345Z,61.45
2022-12-10T14:22:32.784Z,61.74
2022-12-10T14:25:47.427Z,61.77
2022-12-10T14:29:00.612Z,62.18
2022-12-10T14:32:07.213Z,62.21
2022-12-10T14:35:25.713Z,62.64
2022-12-10T14:38:37.304Z,62.38
2022-12-10T14:41:46.237Z,62.43
2022-12-10T14:45:02.496Z,62.60
2022-12-10T14:48:10.195Z,63.25
2022-12-10T14:51:23.476Z,62.52
2022-12-10T14:54:33.839Z,61.71
2022-12-10T14:57:46.971Z,61.88
2022-12-10T15:00:53.601Z,61.67
2022-12-10T15:04:05.344Z,61.66
2022-12-10T15:07:22.674Z,62.11
2022-12-10T15:10:36.519Z,61.93
2022-12-10T15:13:50.210Z,61.75
2022-12-10T15:17:02.673Z,62.16
2022-12-10T15:20:28.839Z,62.34
2022-12-10T15:23:41.758Z,62.47
2022-12-10T15:26:52.569Z,62.30
2022-12-10T15:29:58.141Z,62.69
2022-12-10T15:33:05.008Z,62.17
2022-12-10T15:36:30.397Z,62.52
2022-12-10T15:39:49.797Z,62.60
2022-12-10T15:43:15.642Z,62.39
2022-12-10T15:46:22.684Z,62.33
2022-12-10T15:49:28.588Z,62.73
2022-12-10T15:52:36.737Z,62.91
2022-12-10T15:55:45.100Z,63.28
2022-12-10T15:58:51.856Z,62.45
2022-12-10T16:01:58.123Z,62.71
2022-12-10T16:05:04.820Z,62.74
2022-12-10T16:08:19.748Z,63.12
2022-12-10T16:11:29.885Z,62.95
2022-12-10T16:14:36.666Z,63.38
2022-12-10T16:17:42.998Z,63.30
2022-12-10T16:20:49.208Z,63.43
2022-12-10T16:23:55.748Z,62.65
2022-12-10T16:27:03.915Z,62.71
2022-12-10T16:30:20.605Z,62.90
2022-12-10T16:33:29.736Z,63.06
2022-12-10T16:36:37.359Z,63.16
2022-12-10T16:39:46.958Z,64.96
2022-12-10T16:43:00.426Z,63.31
2022-12-10T16:46:08.298Z,62.82
2022-12-10T16:49:14.871Z,62.65
2022-12-10T16:52:23.050Z,62.97
2022-12-10T16:55:30.351Z,62.98
2022-12-10T16:58:38.631Z,62.94
2022-12-10T17:01:44.977Z,63.08
2022-12-10T17:04:51.495Z,62.96
2022-12-10T17:07:58.152Z,62.98
2022-12-10T17:11:16.269Z,62.91
2022-12-10T17:14:32.212Z,62.80
2022-12-10T17:17:37.831Z,62.99
2022-12-10T17:20:44.464Z,63.05
2022-12-10T17:23:50.026Z,62.59
2022-12-10T17:27:02.473Z,62.96
2022-12-10T17:30:17.991Z,62.67
2022-12-10T17:33:26.936Z,62.97
2022-12-10T17:36:32.573Z,62.86
2022-12-10T17:39:38.914Z,62.90
2022-12-10T17:42:44.597Z,62.88
2022-12-10T17:45:53.819Z,64.34
2022-12-10T17:49:05.071Z,63.11
2022-12-10T17:52:13.823Z,63.27
2022-12-10T17:55:20.141Z,62.84
2022-12-10T17:58:26.905Z,63.38
2022-12-10T18:01:35.316Z,63.09
2022-12-10T18:04:42.639Z,63.37
2022-12-10T18:07:48.389Z,63.22
2022-12-10T18:10:58.154Z,62.91
2022-12-10T18:14:04.319Z,63.70
2022-12-10T18:17:18.685Z,63.36
2022-12-10T18:20:29.339Z,62.72
2022-12-10T18:23:38.659Z,62.33
2022-12-10T18:26:47.531Z,63.01
2022-12-10T18:29:54.168Z,64.11
2022-12-10T18:33:02.687Z,63.49
2022-12-10T18:36:10.064Z,62.86
2022-12-10T18:39:22.949Z,62.62
2022-12-10T18:42:29.524Z,62.38
2022-12-10T18:45:35.072Z,63.27
2022-12-10T18:48:44.257Z,63.40
2022-12-10T18:51:50.329Z,63.47
2022-12-10T18:54:57.059Z,63.35
2022-12-10T18:58:06.919Z,63.11
2022-12-10T19:01:17.989Z,63.10
2022-12-10T19:04:26.251Z,62.98
2022-12-10T19:07:32.770Z,63.12
2022-12-10T19:10:38.585Z,63.77
2022-12-10T19:13:45.328Z,63.43
2022-12-10T19:16:51.134Z,64.60
2022-12-10T19:20:02.107Z,63.82
2022-12-10T19:23:07.879Z,63.84
2022-12-10T19:26:33.211Z,63.63
2022-12-10T19:29:41.640Z,63.28
2022-12-10T19:32:50.629Z,63.94
2022-12-10T19:35:58.988Z,63.54
2022-12-10T19:39:05.749Z,62.96
2022-12-10T19:42:11.624Z,63.35
2022-12-10T19:45:19.693Z,63.64
2022-12-10T19:48:28.064Z,63.68
2022-12-10T19:51:39.434Z,63.33
2022-12-10T19:54:48.846Z,63.98
2022-12-10T19:57:55.715Z,63.85
2022-12-10T20:01:05.371Z,62.96
2022-12-10T20:04:12.434Z,63.23
2022-12-10T20:07:20.776Z,64.87
2022-12-10T20:10:31.868Z,63.92
2022-12-10T20:13:39.375Z,63.76
2022-12-10T20:16:46.854Z,63.63
2022-12-10T20:19:52.474Z,63.63
2022-12-10T20:23:03.086Z,63.44
2022-12-10T20:26:21.667Z,63.46
2022-12-10T20:29:30.042Z,63.76
2022-12-10T20:32:35.765Z,63.55
2022-12-10T20:35:42.807Z,63.83
2022-12-10T20:38:52.009Z,64.41
2022-12-10T20:42:00.601Z,63.87
2022-12-10T20:45:06.555Z,63.90
2022-12-10T20:48:15.117Z,63.89
2022-12-10T20:51:21.539Z,64.71
2022-12-10T20:54:30.753Z,64.64
2022-12-10T20:57:36.318Z,64.20
2022-12-10T21:00:44.750Z,63.47
2022-12-10T21:03:51.262Z,63.67
2022-12-10T21:06:57.906Z,63.44
2022-12-10T21:10:30.241Z,62.58
2022-12-10T21:13:36.822Z,63.30
2022-12-10T21:16:43.038Z,63.29
2022-12-10T21:19:49.361Z,63.11
2022-12-10T21:22:55.657Z,62.99
2022-12-10T21:26:04.903Z,63.08
2022-12-10T21:29:10.729Z,63.16
2022-12-10T21:32:17.409Z,62.78
2022-12-10T21:35:23.435Z,62.69
2022-12-10T21:38:30.733Z,63.47
2022-12-10T21:41:51.610Z,63.30
2022-12-10T21:44:58.065Z,63.36
2022-12-10T21:48:04.911Z,63.28
2022-12-10T21:51:12.752Z,63.55
2022-12-10T21:54:20.057Z,65.38
2022-12-10T21:57:29.477Z,63.72
2022-12-10T22:00:36.428Z,63.57
2022-12-10T22:03:43.943Z,63.56
2022-12-10T22:06:49.565Z,63.45
2022-12-10T22:09:56.005Z,63.54
2022-12-10T22:13:04.252Z,63.64
2022-12-10T22:16:11.489Z,63.17
2022-12-10T22:19:17.132Z,63.32
2022-12-10T22:22:23.881Z,63.31
2022-12-10T22:25:29.707Z,63.86
2022-12-10T22:28:38.874Z,63.75
2022-12-10T22:31:44.445Z,63.17
2022-12-10T22:34:51.043Z,63.65
2022-12-10T22:37:56.825Z,65.36
2022-12-10T22:41:12.171Z,63.26
2022-12-10T22:44:20.735Z,63.34
2022-12-10T22:47:29.516Z,63.49
2022-12-10T22:50:35.043Z,63.06
2022-12-10T22:53:41.309Z,63.20
2022-12-10T22:56:48.760Z,62.96
2022-12-10T22:59:57.929Z,62.65
2022-12-10T23:03:07.447Z,63.57
2022-12-10T23:06:15.434Z,62.97
2022-12-10T23:09:20.913Z,63.06
2022-12-10T23:12:39.686Z,62.54
2022-12-10T23:15:47.838Z,63.14
2022-12-10T23:18:54.132Z,63.51
2022-12-10T23:22:00.571Z,65.27
2022-12-10T23:25:07.852Z,64.67
2022-12-10T23:28:14.327Z,65.64
2022-12-10T23:31:24.169Z,64.28
2022-12-10T23:34:29.731Z,64.42
2022-12-10T23:37:37.271Z,64.25
2022-12-10T23:40:44.352Z,64.26
2022-12-10T23:43:57.016Z,64.22
2022-12-10T23:47:05.942Z,64.29
2022-12-10T23:50:13.973Z,63.58
2022-12-10T23:53:19.606Z,63.85
2022-12-10T23:56:25.952Z,63.96
2022-12-10T23:59:31.543Z,63.92
